Time;durP1;ratioP1;P1;durP2;ratioP2;P2;SDS_P1;SDS_P2;PMS_P1;PMS_P2;Temp;Humidity;BMP_temperature;BMP_pressure;BME280_temperature;BME280_humidity;BME280_pressure;Samples;Min_cycle;Max_cycle;Signal;HPM_P1;HPM_P2
2023/09/29 00:01:17;;;;;;;18.35;3.88;;;16.50;99.90;;;;;;4233853;28;20061;-79
2023/09/29 00:03:19;;;;;;;9.82;3.15;;;16.90;99.90;;;;;;4233810;28;20055;-79
2023/09/29 00:05:20;;;;;;;13.25;3.63;;;16.40;99.90;;;;;;4233435;28;20506;-79
2023/09/29 00:07:20;;;;;;;13.20;3.60;;;16.90;99.90;;;;;;4233790;28;20078;-79
2023/09/29 00:09:22;;;;;;;24.17;3.75;;;14.40;99.90;;;;;;4215706;28;20044;-79
2023/09/29 00:11:23;;;;;;;13.73;3.42;;;16.50;99.90;;;;;;4215761;28;20036;-79
2023/09/29 00:13:24;;;;;;;16.42;4.40;;;16.40;99.90;;;;;;4232754;28;20035;-79
2023/09/29 00:15:24;;;;;;;23.48;4.40;;;17.00;99.90;;;;;;4233447;28;20058;-79
2023/09/29 00:17:25;;;;;;;12.32;3.47;;;16.70;99.90;;;;;;4233269;28;20468;-79
2023/09/29 00:19:26;;;;;;;14.85;3.55;;;16.50;99.90;;;;;;4233371;28;20823;-79
2023/09/29 00:21:27;;;;;;;14.77;3.78;;;16.50;99.90;;;;;;4233426;28;20777;-79
2023/09/29 00:23:28;;;;;;;16.85;4.30;;;16.50;99.90;;;;;;4215387;28;20129;-79
2023/09/29 00:25:29;;;;;;;13.75;2.80;;;16.90;99.90;;;;;;4216309;28;20044;-78
2023/09/29 00:27:30;;;;;;;11.93;3.10;;;17.20;99.90;;;;;;4235435;28;20043;-79
2023/09/29 00:29:31;;;;;;;14.45;3.97;;;16.70;99.90;;;;;;4237332;28;20381;-79
2023/09/29 00:31:34;;;;;;;18.55;3.58;;;16.50;99.90;;;;;;4216780;28;20048;-79
2023/09/29 00:33:35;;;;;;;14.95;3.80;;;16.70;99.90;;;;;;4215410;28;20552;-79
2023/09/29 00:35:37;;;;;;;16.83;3.10;;;16.50;99.90;;;;;;4198593;28;20080;-79
2023/09/29 00:37:37;;;;;;;17.92;6.18;;;16.90;99.90;;;;;;4233286;28;20035;-79
2023/09/29 00:39:38;;;;;;;14.23;4.70;;;16.70;99.90;;;;;;4233675;28;20062;-79
2023/09/29 00:41:39;;;;;;;19.20;3.42;;;16.80;99.90;;;;;;4233432;28;20036;-79
2023/09/29 00:43:40;;;;;;;21.40;4.22;;;17.00;99.90;;;;;;4233400;28;20088;-79
2023/09/29 00:45:42;;;;;;;10.65;3.00;;;16.70;99.90;;;;;;4232324;28;20095;-79
2023/09/29 00:47:44;;;;;;;23.27;4.65;;;16.30;99.90;;;;;;4214866;28;20141;-79
2023/09/29 00:49:48;;;;;;;24.40;11.38;;;16.70;99.90;;;;;;4232401;28;20122;-79
2023/09/29 00:51:49;;;;;;;18.88;5.00;;;17.20;99.90;;;;;;4233353;28;20039;-79
2023/09/29 00:53:51;;;;;;;14.80;4.05;;;17.00;99.90;;;;;;4232507;28;20096;-79
2023/09/29 00:55:53;;;;;;;15.85;4.25;;;17.00;99.90;;;;;;4232391;28;20126;-79
2023/09/29 00:57:57;;;;;;;14.57;3.72;;;;;;;;;;4232733;28;20070;-78
2023/09/29 00:59:58;;;;;;;14.65;3.65;;;16.40;99.90;;;;;;4232650;28;20047;-79
2023/09/29 01:01:59;;;;;;;21.77;3.28;;;16.40;99.90;;;;;;4232838;28;20598;-79
2023/09/29 01:04:00;;;;;;;15.45;3.60;;;16.40;99.90;;;;;;4232289;28;20035;-78
2023/09/29 01:06:01;;;;;;;18.10;2.97;;;16.40;99.90;;;;;;4231550;28;20126;-79
2023/09/29 01:08:08;;;;;;;13.23;3.70;;;16.40;99.90;;;;;;4232556;28;20038;-79
2023/09/29 01:10:13;;;;;;;17.38;5.75;;;16.60;99.90;;;;;;4232883;28;20554;-79
2023/09/29 01:12:27;;;;;;;11.90;4.22;;;16.40;99.90;;;;;;4215054;28;20129;-79
2023/09/29 01:14:28;;;;;;;17.88;4.15;;;16.60;99.90;;;;;;4231445;28;20054;-79
2023/09/29 01:16:28;;;;;;;22.00;3.33;;;16.40;99.90;;;;;;4232498;28;20118;-79
2023/09/29 01:18:29;;;;;;;19.80;4.55;;;16.40;99.90;;;;;;4232345;28;20052;-79
2023/09/29 01:20:30;;;;;;;18.15;3.97;;;16.50;99.90;;;;;;4232309;28;20399;-79
2023/09/29 01:22:31;;;;;;;12.77;3.78;;;16.30;99.90;;;;;;4231690;28;20392;-79
2023/09/29 01:24:32;;;;;;;13.43;3.35;;;16.40;99.90;;;;;;4231142;28;20736;-79
2023/09/29 01:26:32;;;;;;;19.67;4.03;;;16.30;99.90;;;;;;4232356;28;20800;-79
2023/09/29 01:28:33;;;;;;;20.27;3.63;;;16.40;99.90;;;;;;4230924;28;20467;-79
2023/09/29 01:30:35;;;;;;;17.05;4.95;;;16.40;99.90;;;;;;4232164;28;20407;-79
2023/09/29 01:32:36;;;;;;;10.82;2.88;;;16.40;99.90;;;;;;4197291;28;20080;-79
2023/09/29 01:34:36;;;;;;;16.65;3.78;;;16.60;99.90;;;;;;4213945;28;20428;-79
2023/09/29 01:36:39;;;;;;;21.77;4.57;;;16.10;99.90;;;;;;4197253;28;20385;-79
2023/09/29 01:38:40;;;;;;;11.60;3.58;;;16.30;99.90;;;;;;4231312;28;20036;-79
2023/09/29 01:40:41;;;;;;;13.13;3.00;;;16.20;99.90;;;;;;4232175;28;20082;-79
2023/09/29 01:42:45;;;;;;;20.20;3.67;;;16.20;99.90;;;;;;4232158;28;20484;-79
2023/09/29 01:44:46;;;;;;;17.88;3.70;;;16.60;99.90;;;;;;4197086;28;20036;-79
2023/09/29 01:46:49;;;;;;;15.50;4.22;;;16.20;99.90;;;;;;4230895;28;20065;-79
2023/09/29 01:48:50;;;;;;;17.27;4.45;;;16.20;99.90;;;;;;4232171;28;20039;-79
2023/09/29 01:50:51;;;;;;;20.13;3.88;;;16.10;99.90;;;;;;4231395;28;20058;-79
2023/09/29 01:52:52;;;;;;;14.68;3.53;;;16.40;99.90;;;;;;4232144;28;20078;-79
2023/09/29 01:54:57;;;;;;;12.98;3.67;;;16.20;99.90;;;;;;4232115;28;20498;-79
2023/09/29 01:57:01;;;;;;;20.23;3.83;;;16.40;99.90;;;;;;4231775;28;20122;-79
2023/09/29 01:59:02;;;;;;;11.27;3.13;;;16.20;99.90;;;;;;4231196;28;20039;-79
2023/09/29 02:01:03;;;;;;;15.48;3.67;;;16.20;99.90;;;;;;4231940;28;20039;-79
2023/09/29 02:03:06;;;;;;;29.42;4.47;;;16.00;99.90;;;;;;4231902;28;20049;-79
2023/09/29 02:05:10;;;;;;;17.95;3.63;;;16.10;99.90;;;;;;4231365;28;20036;-79
2023/09/29 02:07:11;;;;;;;13.45;4.30;;;16.20;99.90;;;;;;4230643;28;20050;-79
2023/09/29 02:09:11;;;;;;;17.35;3.60;;;16.20;99.90;;;;;;4231788;28;20040;-79
2023/09/29 02:11:12;;;;;;;14.93;3.83;;;16.10;99.90;;;;;;4230321;28;20044;-79
2023/09/29 02:13:13;;;;;;;14.57;3.72;;;16.00;99.90;;;;;;4231558;28;20126;-79
2023/09/29 02:15:17;;;;;;;15.80;3.70;;;16.10;99.90;;;;;;4230731;28;20552;-79
2023/09/29 02:17:18;;;;;;;16.98;4.10;;;16.00;99.90;;;;;;4231789;28;20048;-79
2023/09/29 02:19:20;;;;;;;20.20;4.88;;;16.00;99.90;;;;;;4230422;28;20050;-79
2023/09/29 02:21:23;;;;;;;21.77;4.63;;;16.00;99.90;;;;;;4231563;28;20039;-79
2023/09/29 02:23:24;;;;;;;14.60;3.50;;;16.00;99.90;;;;;;4231867;28;20957;-79
2023/09/29 02:25:29;;;;;;;19.60;4.97;;;16.00;99.90;;;;;;4231337;28;20075;-79
2023/09/29 02:27:30;;;;;;;14.75;3.10;;;15.90;99.90;;;;;;4231008;28;20090;-79
2023/09/29 02:29:30;;;;;;;15.18;3.33;;;16.00;99.90;;;;;;4231236;28;20499;-79
2023/09/29 02:31:31;;;;;;;16.20;3.63;;;15.90;99.90;;;;;;4196018;28;20056;-79
2023/09/29 02:33:32;;;;;;;18.08;5.05;;;16.00;99.90;;;;;;4231254;28;20044;-79
2023/09/29 02:35:33;;;;;;;17.42;4.10;;;15.90;99.90;;;;;;4231504;28;20039;-79
2023/09/29 02:37:33;;;;;;;15.23;3.60;;;16.10;99.90;;;;;;4231423;28;20055;-80
2023/09/29 02:39:34;;;;;;;17.05;3.25;;;16.30;99.90;;;;;;4231056;28;20040;-79
2023/09/29 02:41:38;;;;;;;10.43;2.72;;;15.90;99.90;;;;;;4231328;28;21911;-78
2023/09/29 02:43:39;;;;;;;20.77;3.05;;;16.00;99.90;;;;;;4224637;28;20518;-78
2023/09/29 02:45:40;;;;;;;16.83;3.25;;;16.00;99.90;;;;;;4214177;28;20048;-77
2023/09/29 02:47:42;;;;;;;23.08;3.50;;;16.20;99.90;;;;;;4214492;28;20518;-77
2023/09/29 02:49:43;;;;;;;13.27;3.72;;;16.10;99.90;;;;;;4213938;28;20044;-78
2023/09/29 02:51:43;;;;;;;12.30;2.80;;;16.40;99.90;;;;;;4219315;28;20388;-78
2023/09/29 02:53:48;;;;;;;10.85;2.45;;;16.20;99.90;;;;;;4214101;28;20036;-77
2023/09/29 02:55:50;;;;;;;11.75;3.00;;;16.20;99.90;;;;;;4214427;28;20036;-78
2023/09/29 02:57:51;;;;;;;9.50;2.70;;;16.20;99.90;;;;;;4214273;28;20036;-77
2023/09/29 02:59:51;;;;;;;12.75;3.85;;;16.10;99.90;;;;;;4214345;28;20097;-78
2023/09/29 03:01:52;;;;;;;16.13;3.70;;;16.20;99.90;;;;;;4214299;28;20047;-78
2023/09/29 03:03:54;;;;;;;12.70;3.47;;;16.30;99.90;;;;;;4195585;28;20083;-77
2023/09/29 03:05:55;;;;;;;13.50;3.03;;;16.30;99.90;;;;;;4196232;28;20432;-77
2023/09/29 03:07:56;;;;;;;16.08;2.95;;;16.10;99.90;;;;;;4218897;28;20042;-78
2023/09/29 03:09:57;;;;;;;9.40;2.28;;;16.20;99.90;;;;;;4212853;28;20416;-77
2023/09/29 03:11:59;;;;;;;14.18;2.97;;;16.20;99.90;;;;;;4214163;28;20082;-77
2023/09/29 03:13:59;;;;;;;13.65;2.38;;;16.10;99.90;;;;;;4213834;28;20036;-77
2023/09/29 03:16:01;;;;;;;14.32;3.10;;;16.40;99.90;;;;;;4213874;28;20101;-77
2023/09/29 03:18:02;;;;;;;12.98;3.10;;;16.40;99.90;;;;;;4213628;28;20139;-77
2023/09/29 03:20:10;;;;;;;10.30;2.90;;;16.30;99.90;;;;;;4214155;28;20047;-77
2023/09/29 03:22:13;;;;;;;13.85;2.95;;;16.10;99.90;;;;;;4214053;28;20046;-77
2023/09/29 03:24:14;;;;;;;11.35;2.72;;;16.30;99.90;;;;;;4213837;28;20105;-78
2023/09/29 03:26:17;;;;;;;12.77;3.33;;;15.90;99.90;;;;;;4230368;28;20047;-79
2023/09/29 03:28:18;;;;;;;13.93;3.08;;;16.00;99.90;;;;;;4230844;28;20039;-78
2023/09/29 03:30:19;;;;;;;12.32;2.47;;;16.20;99.90;;;;;;4212546;28;20063;-78
2023/09/29 03:32:20;;;;;;;15.18;3.50;;;16.40;99.90;;;;;;4231080;28;20422;-78
2023/09/29 03:34:21;;;;;;;17.52;3.65;;;16.10;99.90;;;;;;4230862;28;20051;-78
2023/09/29 03:36:22;;;;;;;9.38;2.90;;;16.10;99.90;;;;;;4230796;28;20104;-78
2023/09/29 03:38:25;;;;;;;11.50;2.92;;;16.10;99.90;;;;;;4230266;28;20514;-79
2023/09/29 03:40:26;;;;;;;9.43;3.00;;;16.20;99.90;;;;;;4230835;28;20043;-78
2023/09/29 03:42:28;;;;;;;17.23;2.63;;;16.00;99.90;;;;;;4230755;28;20098;-78
2023/09/29 03:44:29;;;;;;;15.23;3.00;;;15.90;99.90;;;;;;4229794;28;20051;-79
2023/09/29 03:46:30;;;;;;;11.75;2.55;;;16.00;99.90;;;;;;4213874;28;20461;-79
2023/09/29 03:48:31;;;;;;;15.88;3.53;;;15.90;99.90;;;;;;4213551;28;20048;-79
2023/09/29 03:50:35;;;;;;;11.32;3.88;;;16.20;99.90;;;;;;4213562;28;20052;-79
2023/09/29 03:52:37;;;;;;;14.65;3.25;;;16.10;99.90;;;;;;4213791;28;20162;-79
2023/09/29 03:54:37;;;;;;;11.98;3.20;;;16.20;99.90;;;;;;4212412;28;20492;-79
2023/09/29 03:56:38;;;;;;;10.45;3.10;;;16.20;99.90;;;;;;4213569;28;20047;-79
2023/09/29 03:58:39;;;;;;;11.38;3.88;;;16.20;99.90;;;;;;4213560;28;20450;-79
2023/09/29 04:00:41;;;;;;;17.38;3.90;;;16.20;99.90;;;;;;4213783;28;20485;-79
2023/09/29 04:02:42;;;;;;;11.27;2.90;;;16.30;99.90;;;;;;4199955;28;20561;-79
2023/09/29 04:04:43;;;;;;;13.00;2.80;;;16.20;99.90;;;;;;4230877;28;20527;-79
2023/09/29 04:06:44;;;;;;;10.20;2.67;;;16.30;99.90;;;;;;4230723;28;20082;-79
2023/09/29 04:08:46;;;;;;;17.02;2.85;;;16.50;99.90;;;;;;4230600;28;20407;-79
2023/09/29 04:10:47;;;;;;;12.73;2.90;;;16.70;99.90;;;;;;4212213;28;20474;-78
2023/09/29 04:12:48;;;;;;;11.57;3.22;;;16.30;99.90;;;;;;4212370;28;20048;-79
2023/09/29 04:14:52;;;;;;;13.55;2.80;;;16.50;99.90;;;;;;4230198;28;20128;-79
2023/09/29 04:16:54;;;;;;;8.48;2.72;;;16.70;99.90;;;;;;4195548;28;20408;-79
2023/09/29 04:18:55;;;;;;;16.15;3.97;;;16.80;99.90;;;;;;4229960;28;20031;-79
2023/09/29 04:20:55;;;;;;;17.08;3.17;;;16.80;99.90;;;;;;4212018;28;20069;-79
2023/09/29 04:22:56;;;;;;;13.98;3.22;;;16.70;99.90;;;;;;4230171;28;20088;-79
2023/09/29 04:24:57;;;;;;;9.88;2.90;;;16.80;99.90;;;;;;4230051;28;20032;-79
2023/09/29 04:26:58;;;;;;;14.98;4.40;;;16.70;99.90;;;;;;4229638;28;20047;-79
2023/09/29 04:28:58;;;;;;;11.68;2.67;;;16.90;99.90;;;;;;4230026;28;20420;-79
2023/09/29 04:30:59;;;;;;;12.27;3.42;;;16.70;99.90;;;;;;4215279;28;20040;-78
2023/09/29 04:33:00;;;;;;;14.68;3.38;;;16.90;99.90;;;;;;4233482;28;20088;-80
2023/09/29 04:35:01;;;;;;;8.73;2.83;;;16.80;99.90;;;;;;4223832;28;20054;-79
2023/09/29 04:37:01;;;;;;;10.25;2.80;;;16.90;99.90;;;;;;4224228;28;20048;-79
2023/09/29 04:39:02;;;;;;;11.60;2.78;;;16.90;99.90;;;;;;4215315;28;20504;-79
2023/09/29 04:41:04;;;;;;;12.25;3.28;;;17.00;99.90;;;;;;4233144;28;20079;-79
2023/09/29 04:43:06;;;;;;;10.30;3.17;;;16.80;99.90;;;;;;4233395;28;20040;-79
2023/09/29 04:45:08;;;;;;;10.45;3.97;;;16.80;99.90;;;;;;4197780;28;20428;-79
2023/09/29 04:47:08;;;;;;;13.40;3.20;;;17.00;99.90;;;;;;4232874;28;20043;-79
2023/09/29 04:49:09;;;;;;;18.92;2.47;;;17.20;99.90;;;;;;4209969;28;20573;-79
2023/09/29 04:51:10;;;;;;;12.43;3.10;;;17.00;99.90;;;;;;4219875;28;20059;-79
2023/09/29 04:53:11;;;;;;;8.65;3.10;;;17.00;99.90;;;;;;4233038;28;20048;-79
2023/09/29 04:55:12;;;;;;;9.32;3.08;;;17.00;99.90;;;;;;4214271;28;20500;-79
2023/09/29 04:57:12;;;;;;;13.10;3.60;;;17.00;99.90;;;;;;4233121;28;20325;-79
2023/09/29 04:59:13;;;;;;;7.93;2.60;;;17.30;99.90;;;;;;4232718;28;20046;-79
2023/09/29 05:01:18;;;;;;;12.55;3.30;;;17.00;99.90;;;;;;4213885;28;20440;-79
2023/09/29 05:03:19;;;;;;;8.05;3.03;;;16.90;99.90;;;;;;4231396;28;20039;-79
2023/09/29 05:05:19;;;;;;;9.77;2.80;;;17.00;99.90;;;;;;4232658;28;20036;-78
2023/09/29 05:07:20;;;;;;;12.98;3.10;;;16.70;99.90;;;;;;4232352;28;20100;-78
2023/09/29 05:09:21;;;;;;;12.82;3.95;;;16.90;99.90;;;;;;4232112;28;20445;-79
2023/09/29 05:11:24;;;;;;;11.20;3.25;;;16.80;99.90;;;;;;4214462;28;20543;-78
2023/09/29 05:13:28;;;;;;;11.40;2.83;;;16.90;99.90;;;;;;4232557;28;20381;-78
2023/09/29 05:15:29;;;;;;;9.93;3.47;;;16.90;99.90;;;;;;4232715;28;20038;-78
2023/09/29 05:17:30;;;;;;;10.18;3.08;;;16.90;99.90;;;;;;4231946;28;20046;-79
2023/09/29 05:19:31;;;;;;;12.73;3.05;;;17.00;99.90;;;;;;4232275;28;20039;-78
2023/09/29 05:21:32;;;;;;;10.60;2.85;;;16.90;99.90;;;;;;4232305;28;20067;-78
2023/09/29 05:23:33;;;;;;;16.38;3.20;;;16.90;99.90;;;;;;4232457;28;20046;-80
2023/09/29 05:25:34;;;;;;;20.13;4.65;;;17.00;99.90;;;;;;4232285;28;20043;-81
2023/09/29 05:27:35;;;;;;;13.40;3.50;;;17.20;99.90;;;;;;4232281;28;20515;-81
2023/09/29 05:29:37;;;;;;;11.95;3.22;;;17.00;99.90;;;;;;4197174;28;20049;-80
2023/09/29 05:31:37;;;;;;;12.15;3.03;;;17.10;99.90;;;;;;4231505;28;20885;-81
2023/09/29 05:33:38;;;;;;;10.52;3.30;;;16.80;99.90;;;;;;4232550;28;20097;-80
2023/09/29 05:35:39;;;;;;;12.98;2.88;;;16.90;99.90;;;;;;4232209;28;20047;-80
2023/09/29 05:37:40;;;;;;;10.15;3.45;;;17.00;99.90;;;;;;4230938;28;20466;-80
2023/09/29 05:39:40;;;;;;;12.23;2.75;;;16.80;99.90;;;;;;4232361;28;20503;-81
2023/09/29 05:41:41;;;;;;;13.73;2.85;;;17.00;99.90;;;;;;4231596;28;20047;-80
2023/09/29 05:43:42;;;;;;;14.25;3.42;;;16.90;99.90;;;;;;4232055;28;20483;-80
2023/09/29 05:45:44;;;;;;;12.93;3.47;;;16.90;99.90;;;;;;4232185;28;20096;-79
2023/09/29 05:47:47;;;;;;;14.65;4.38;;;16.60;99.90;;;;;;4231763;28;20051;-79
2023/09/29 05:49:47;;;;;;;13.98;4.88;;;17.00;99.90;;;;;;4216058;28;20052;-79
2023/09/29 05:51:48;;;;;;;10.98;3.55;;;17.00;99.90;;;;;;4229613;28;20503;-79
2023/09/29 05:53:49;;;;;;;15.18;4.55;;;16.70;99.90;;;;;;4231040;28;20043;-79
2023/09/29 05:55:50;;;;;;;17.45;4.22;;;16.80;99.90;;;;;;4218694;28;20036;-78
2023/09/29 05:57:51;;;;;;;9.45;2.55;;;16.70;99.90;;;;;;4214625;28;20147;-78
2023/09/29 05:59:54;;;;;;;9.55;2.90;;;16.90;99.90;;;;;;4196887;28;20044;-78
2023/09/29 06:01:56;;;;;;;13.18;4.43;;;16.70;99.90;;;;;;4214675;28;20115;-78
2023/09/29 06:03:58;;;;;;;9.38;3.33;;;16.80;99.90;;;;;;4214798;28;20048;-78
2023/09/29 06:05:59;;;;;;;8.27;2.97;;;17.00;99.90;;;;;;4215092;28;20399;-78
2023/09/29 06:08:00;;;;;;;15.05;3.72;;;16.70;99.90;;;;;;4214832;28;20075;-78
2023/09/29 06:10:01;;;;;;;6.78;3.10;;;16.80;99.90;;;;;;4196799;28;20048;-79
2023/09/29 06:12:02;;;;;;;12.05;3.75;;;17.00;99.90;;;;;;4242273;27;20070;-80
2023/09/29 06:14:03;;;;;;;10.23;3.28;;;16.90;99.90;;;;;;4231883;28;20541;-80
2023/09/29 06:16:06;;;;;;;13.82;3.53;;;16.90;99.90;;;;;;4232297;28;20046;-80
2023/09/29 06:18:07;;;;;;;14.45;4.03;;;16.80;99.90;;;;;;4247617;27;20043;-79
2023/09/29 06:20:08;;;;;;;13.73;4.57;;;16.60;99.90;;;;;;4231815;28;20142;-79
2023/09/29 06:22:09;;;;;;;13.15;3.55;;;16.90;99.90;;;;;;4231480;28;20113;-80
2023/09/29 06:24:10;;;;;;;16.15;4.78;;;16.90;99.90;;;;;;4231432;28;20035;-80
2023/09/29 06:26:11;;;;;;;17.42;3.45;;;16.80;99.90;;;;;;4213292;28;20503;-82
2023/09/29 06:28:12;;;;;;;18.70;4.65;;;16.80;99.90;;;;;;4230932;28;20510;-82
2023/09/29 06:30:13;;;;;;;15.45;4.72;;;16.90;99.90;;;;;;4244345;27;20043;-82
2023/09/29 06:32:14;;;;;;;13.80;3.92;;;16.90;99.90;;;;;;4248751;27;20344;-82
2023/09/29 06:34:15;;;;;;;11.93;3.97;;;16.60;99.90;;;;;;4246837;27;20065;-81
2023/09/29 06:36:16;;;;;;;15.80;3.70;;;16.90;99.90;;;;;;4248624;27;20146;-82
2023/09/29 06:38:16;;;;;;;14.98;3.90;;;16.80;99.90;;;;;;4244669;27;20050;-80
2023/09/29 06:40:17;;;;;;;10.18;4.00;;;16.90;99.90;;;;;;4214592;28;20166;-81
2023/09/29 06:42:18;;;;;;;20.40;4.25;;;16.70;99.90;;;;;;4214582;28;20036;-82
2023/09/29 06:44:19;;;;;;;10.50;3.92;;;16.80;99.90;;;;;;4214390;28;20051;-81
2023/09/29 06:46:20;;;;;;;14.52;4.50;;;17.00;99.90;;;;;;4196536;28;20405;-81
2023/09/29 06:48:22;;;;;;;19.27;4.35;;;16.90;99.90;;;;;;4214727;28;20400;-81
2023/09/29 06:50:22;;;;;;;14.75;3.70;;;16.90;99.90;;;;;;4214175;28;20127;-81
2023/09/29 06:52:24;;;;;;;9.52;3.35;;;16.90;99.90;;;;;;4202549;28;20032;-81
2023/09/29 06:54:24;;;;;;;12.32;3.58;;;17.00;99.90;;;;;;4231114;28;20472;-81
2023/09/29 06:56:25;;;;;;;9.00;3.85;;;17.00;99.90;;;;;;4230429;28;20047;-81
2023/09/29 06:58:26;;;;;;;13.82;3.83;;;17.00;99.90;;;;;;4212473;28;20496;-81
2023/09/29 07:00:27;;;;;;;14.20;4.47;;;17.10;99.90;;;;;;4231154;28;20130;-81
2023/09/29 07:02:28;;;;;;;10.20;4.15;;;17.10;99.90;;;;;;4231327;28;20062;-82
2023/09/29 07:04:29;;;;;;;12.40;3.70;;;17.30;99.90;;;;;;4212974;28;20132;-82
2023/09/29 07:06:29;;;;;;;12.38;3.67;;;17.00;99.90;;;;;;4231377;28;20054;-82
2023/09/29 07:08:30;;;;;;;14.30;4.00;;;17.20;99.90;;;;;;4231094;28;20051;-82
2023/09/29 07:10:31;;;;;;;10.38;3.38;;;17.10;99.90;;;;;;4231978;28;20046;-82
2023/09/29 07:12:32;;;;;;;11.77;3.63;;;17.30;99.90;;;;;;4230427;28;20044;-82
2023/09/29 07:14:33;;;;;;;11.57;4.10;;;17.40;99.90;;;;;;4213445;28;20120;-82
2023/09/29 07:16:34;;;;;;;15.40;4.50;;;17.40;99.90;;;;;;4213695;28;20037;-82
2023/09/29 07:18:35;;;;;;;13.35;3.70;;;17.40;99.90;;;;;;4214870;28;20504;-82
2023/09/29 07:20:35;;;;;;;15.13;4.30;;;17.60;99.90;;;;;;4231039;28;20051;-82
2023/09/29 07:22:36;;;;;;;11.52;4.13;;;17.50;99.90;;;;;;4231157;28;20035;-80
2023/09/29 07:24:39;;;;;;;10.80;4.38;;;17.90;99.90;;;;;;4230406;28;20052;-79
2023/09/29 07:26:40;;;;;;;14.38;3.25;;;17.80;99.90;;;;;;4220156;28;20115;-79
2023/09/29 07:28:41;;;;;;;10.30;3.88;;;17.90;99.90;;;;;;4228538;28;20488;-79
2023/09/29 07:30:42;;;;;;;9.55;3.80;;;17.80;99.90;;;;;;4206504;28;20040;-78
2023/09/29 07:32:43;;;;;;;14.23;3.80;;;17.80;99.90;;;;;;4228380;28;20040;-78
2023/09/29 07:34:44;;;;;;;8.32;3.72;;;17.80;99.90;;;;;;4230395;28;20057;-78
2023/09/29 07:36:45;;;;;;;13.60;4.75;;;18.00;99.90;;;;;;4230309;28;20036;-79
2023/09/29 07:38:46;;;;;;;13.15;3.45;;;17.90;99.90;;;;;;4230929;28;20514;-79
2023/09/29 07:40:48;;;;;;;18.10;4.20;;;17.90;99.90;;;;;;4231066;28;20040;-79
2023/09/29 07:42:48;;;;;;;9.73;3.47;;;17.70;99.90;;;;;;4230827;28;20124;-79
2023/09/29 07:44:49;;;;;;;8.05;3.90;;;18.00;99.90;;;;;;4231205;28;20480;-79
2023/09/29 07:46:53;;;;;;;10.40;3.28;;;18.00;99.90;;;;;;4229108;28;20052;-79
2023/09/29 07:48:53;;;;;;;9.48;3.40;;;18.30;99.90;;;;;;4230780;28;20503;-79
2023/09/29 07:50:54;;;;;;;6.95;3.47;;;18.40;99.90;;;;;;4230263;28;20051;-79
2023/09/29 07:52:55;;;;;;;6.13;3.15;;;18.30;99.90;;;;;;4230798;28;20043;-79
2023/09/29 07:54:56;;;;;;;11.55;3.25;;;18.20;99.90;;;;;;4230769;28;20035;-79
2023/09/29 07:56:56;;;;;;;12.38;3.67;;;18.50;99.90;;;;;;4230495;28;20040;-79
2023/09/29 07:58:58;;;;;;;12.30;4.07;;;18.50;99.90;;;;;;4230353;28;20074;-79
2023/09/29 08:00:58;;;;;;;7.30;3.58;;;18.70;99.90;;;;;;4223184;28;20024;-79
2023/09/29 08:03:00;;;;;;;11.48;3.55;;;18.80;99.90;;;;;;4230353;28;20047;-79
2023/09/29 08:05:01;;;;;;;7.95;2.80;;;18.90;99.90;;;;;;4233963;28;20075;-80
2023/09/29 08:07:02;;;;;;;7.35;2.90;;;19.50;99.90;;;;;;4216194;28;20123;-80
2023/09/29 08:09:03;;;;;;;15.73;3.67;;;20.00;99.90;;;;;;4233177;28;20040;-79
2023/09/29 08:11:04;;;;;;;6.82;2.75;;;20.20;99.90;;;;;;4233850;28;20155;-79
2023/09/29 08:13:05;;;;;;;11.70;3.95;;;20.10;99.90;;;;;;4233729;28;20039;-79
2023/09/29 08:15:10;;;;;;;8.10;3.00;;;20.40;99.90;;;;;;4233575;28;20535;-79
2023/09/29 08:17:11;;;;;;;11.52;3.50;;;20.50;99.90;;;;;;4233720;28;20080;-79
2023/09/29 08:19:12;;;;;;;6.40;2.47;;;20.50;99.90;;;;;;4233290;28;20039;-79
2023/09/29 08:21:13;;;;;;;7.95;2.50;;;20.60;99.90;;;;;;4233480;28;20403;-79
2023/09/29 08:23:13;;;;;;;9.55;2.90;;;20.80;99.90;;;;;;4233011;28;20043;-79
2023/09/29 08:25:14;;;;;;;5.90;2.67;;;20.90;99.90;;;;;;4233271;28;20493;-79
2023/09/29 08:27:15;;;;;;;6.38;3.08;;;20.80;99.90;;;;;;4233264;28;20130;-79
2023/09/29 08:29:16;;;;;;;6.40;2.45;;;20.80;99.90;;;;;;4231392;28;20495;-79
2023/09/29 08:31:17;;;;;;;5.43;2.40;;;20.80;99.90;;;;;;4233517;28;20043;-79
2023/09/29 08:33:18;;;;;;;4.32;2.30;;;21.00;99.90;;;;;;4232915;28;20126;-79
2023/09/29 08:35:19;;;;;;;8.43;2.28;;;21.30;99.90;;;;;;4228620;28;20441;-79
2023/09/29 08:37:20;;;;;;;7.82;2.97;;;21.30;99.90;;;;;;4233366;28;20054;-79
2023/09/29 08:39:21;;;;;;;4.82;2.45;;;21.00;99.90;;;;;;4233065;28;20046;-79
2023/09/29 08:41:28;;;;;;;5.55;2.33;;;21.10;99.90;;;;;;4230957;28;20417;-79
2023/09/29 08:43:30;;;;;;;7.32;2.38;;;21.00;99.90;;;;;;4233017;28;20079;-79
2023/09/29 08:45:31;;;;;;;4.05;2.22;;;21.00;99.90;;;;;;4230652;28;20048;-80
2023/09/29 08:47:36;;;;;;;6.63;2.45;;;20.90;99.90;;;;;;4232997;28;20488;-79
2023/09/29 08:49:40;;;;;;;7.50;2.75;;;21.00;99.90;;;;;;4232797;28;20112;-79
2023/09/29 08:51:46;;;;;;;6.65;2.25;;;21.10;99.90;;;;;;4226226;28;20036;-79
2023/09/29 08:53:50;;;;;;;6.70;2.10;;;21.50;99.90;;;;;;4228994;28;20436;-78
2023/09/29 08:55:53;;;;;;;6.20;1.92;;;21.70;99.90;;;;;;4230094;28;20102;-79
2023/09/29 08:57:54;;;;;;;5.28;2.00;;;22.00;99.90;;;;;;4211111;28;20036;-79
2023/09/29 08:59:55;;;;;;;7.63;2.83;;;21.70;99.90;;;;;;4232296;28;20036;-79
2023/09/29 09:01:58;;;;;;;5.57;2.45;;;21.70;99.90;;;;;;4228400;28;20069;-78
2023/09/29 09:03:59;;;;;;;7.22;2.47;;;21.80;99.90;;;;;;4215888;28;20500;-78
2023/09/29 09:06:01;;;;;;;5.50;1.80;;;21.60;99.90;;;;;;4226310;28;20036;-79
2023/09/29 09:08:02;;;;;;;5.07;1.83;;;21.50;99.90;;;;;;4232707;28;20103;-79
2023/09/29 09:10:03;;;;;;;6.53;2.45;;;21.60;99.90;;;;;;4221913;28;20506;-79
2023/09/29 09:12:04;;;;;;;5.13;2.08;;;21.60;99.90;;;;;;4216040;28;20550;-78
2023/09/29 09:14:07;;;;;;;5.30;1.98;;;21.30;99.90;;;;;;4204524;28;20052;-79
2023/09/29 09:16:09;;;;;;;9.65;2.55;;;21.30;99.90;;;;;;4215081;28;20075;-78
2023/09/29 09:18:10;;;;;;;8.02;2.13;;;21.40;99.90;;;;;;4223062;28;20564;-78
2023/09/29 09:20:11;;;;;;;3.13;1.75;;;20.90;99.90;;;;;;4213997;28;20085;-80
2023/09/29 09:22:16;;;;;;;6.28;2.42;;;21.20;99.90;;;;;;4227600;28;20033;-80
2023/09/29 09:24:21;;;;;;;8.77;2.53;;;20.80;99.90;;;;;;4224868;28;20048;-80
2023/09/29 09:26:21;;;;;;;4.78;2.65;;;21.60;99.90;;;;;;4197727;28;20049;-80
2023/09/29 09:28:22;;;;;;;6.00;2.25;;;21.10;99.90;;;;;;4222326;28;20096;-79
2023/09/29 09:30:24;;;;;;;4.82;2.05;;;21.50;99.90;;;;;;4213877;28;20520;-80
2023/09/29 09:32:29;;;;;;;4.53;2.25;;;21.90;99.90;;;;;;4228244;28;20035;-80
2023/09/29 09:34:33;;;;;;;8.48;2.40;;;22.10;99.90;;;;;;4215599;28;20078;-80
2023/09/29 09:36:51;;;;;;;5.63;1.95;;;22.70;99.90;;;;;;4197641;28;20090;-80
2023/09/29 09:38:52;;;;;;;5.95;2.10;;;23.40;99.90;;;;;;4214182;28;20083;-80
2023/09/29 09:40:54;;;;;;;10.05;2.42;;;23.30;99.90;;;;;;4214464;28;20047;-80
2023/09/29 09:43:02;;;;;;;5.43;1.77;;;22.90;99.90;;;;;;4232436;28;20044;-80
2023/09/29 09:45:04;;;;;;;11.80;2.58;;;22.40;99.90;;;;;;4214132;28;20123;-80
2023/09/29 09:47:12;;;;;;;8.07;1.88;;;22.20;99.90;;;;;;4214471;28;20040;-79
2023/09/29 09:49:14;;;;;;;8.57;1.80;;;22.00;99.90;;;;;;4231195;28;20054;-80
2023/09/29 09:51:34;;;;;;;4.75;2.45;;;21.90;99.90;;;;;;4232545;28;20415;-80
2023/09/29 09:53:37;;;;;;;5.53;2.00;;;21.80;99.90;;;;;;4215853;28;20048;-81
2023/09/29 09:55:50;;;;;;;5.75;2.03;;;21.60;99.90;;;;;;4219682;28;20097;-81
2023/09/29 09:57:51;;;;;;;8.57;2.25;;;21.50;99.90;;;;;;4213327;28;20100;-78
2023/09/29 09:59:54;;;;;;;5.32;2.10;;;21.40;99.90;;;;;;4215425;28;20093;-79
2023/09/29 10:01:56;;;;;;;6.15;2.20;;;21.40;99.90;;;;;;4226549;28;20054;-80
2023/09/29 10:03:59;;;;;;;5.43;2.35;;;21.60;99.90;;;;;;4232069;28;20039;-80
2023/09/29 10:06:01;;;;;;;7.60;2.20;;;21.60;99.90;;;;;;4230789;28;20054;-79
2023/09/29 10:08:03;;;;;;;11.10;2.58;;;21.50;99.90;;;;;;4214027;28;20047;-79
2023/09/29 10:10:04;;;;;;;4.03;2.00;;;21.50;99.90;;;;;;4230303;28;20111;-79
2023/09/29 10:12:05;;;;;;;8.52;2.00;;;21.50;99.90;;;;;;4231513;28;20087;-79
2023/09/29 10:14:08;;;;;;;6.15;2.20;;;21.40;99.90;;;;;;4230242;28;20043;-79
2023/09/29 10:16:19;;;;;;;7.72;2.17;;;21.40;99.90;;;;;;4213667;28;20111;-79
2023/09/29 10:18:21;;;;;;;4.32;2.20;;;21.40;99.90;;;;;;4230841;28;20048;-81
2023/09/29 10:20:24;;;;;;;7.10;3.22;;;21.30;99.90;;;;;;4230817;28;20437;-81
2023/09/29 10:22:27;;;;;;;4.10;2.13;;;21.30;99.90;;;;;;4228520;28;20446;-81
2023/09/29 10:24:28;;;;;;;4.88;2.50;;;21.40;99.90;;;;;;4228721;28;20040;-81
2023/09/29 10:26:29;;;;;;;3.88;2.05;;;21.50;99.90;;;;;;4219978;28;20068;-81
2023/09/29 10:28:31;;;;;;;8.63;2.38;;;21.90;99.90;;;;;;4227002;28;20385;-81